sensor_id;sensor_type;location;lat;lon;timestamp;temperature;humidity
75819;DHT22;64453;51.944;9.796;2023-05-07T00:00:34;18.30;53.90
75819;DHT22;64453;51.944;9.796;2023-05-07T00:03:02;18.20;54.00
75819;DHT22;64453;51.944;9.796;2023-05-07T00:05:30;18.10;54.10
75819;DHT22;64453;51.944;9.796;2023-05-07T00:07:57;18.10;54.20
75819;DHT22;64453;51.944;9.796;2023-05-07T00:10:25;18.00;54.10
75819;DHT22;64453;51.944;9.796;2023-05-07T00:12:52;18.10;54.20
75819;DHT22;64453;51.944;9.796;2023-05-07T00:15:19;18.10;54.20
75819;DHT22;64453;51.944;9.796;2023-05-07T00:17:47;18.10;54.30
75819;DHT22;64453;51.944;9.796;2023-05-07T00:20:14;18.00;54.30
75819;DHT22;64453;51.944;9.796;2023-05-07T00:22:43;17.90;54.50
75819;DHT22;64453;51.944;9.796;2023-05-07T00:25:10;18.00;54.60
75819;DHT22;64453;51.944;9.796;2023-05-07T00:27:37;18.00;54.30
75819;DHT22;64453;51.944;9.796;2023-05-07T00:30:06;17.90;54.50
75819;DHT22;64453;51.944;9.796;2023-05-07T00:32:34;17.90;54.60
75819;DHT22;64453;51.944;9.796;2023-05-07T00:35:02;18.00;54.60
75819;DHT22;64453;51.944;9.796;2023-05-07T00:37:29;17.90;54.90
75819;DHT22;64453;51.944;9.796;2023-05-07T00:39:58;18.00;54.80
75819;DHT22;64453;51.944;9.796;2023-05-07T00:42:25;17.80;55.50
75819;DHT22;64453;51.944;9.796;2023-05-07T00:44:53;17.90;54.80
75819;DHT22;64453;51.944;9.796;2023-05-07T00:47:20;18.00;54.80
75819;DHT22;64453;51.944;9.796;2023-05-07T00:49:47;17.90;54.40
75819;DHT22;64453;51.944;9.796;2023-05-07T00:52:16;17.80;54.70
75819;DHT22;64453;51.944;9.796;2023-05-07T00:54:44;17.90;54.90
75819;DHT22;64453;51.944;9.796;2023-05-07T00:57:13;17.70;54.70
75819;DHT22;64453;51.944;9.796;2023-05-07T00:59:41;17.70;55.00
75819;DHT22;64453;51.944;9.796;2023-05-07T01:02:08;17.70;55.00
75819;DHT22;64453;51.944;9.796;2023-05-07T01:04:36;17.60;55.00
75819;DHT22;64453;51.944;9.796;2023-05-07T01:07:03;17.60;55.20
75819;DHT22;64453;51.944;9.796;2023-05-07T01:09:31;17.60;55.20
75819;DHT22;64453;51.944;9.796;2023-05-07T01:12:00;17.50;55.40
75819;DHT22;64453;51.944;9.796;2023-05-07T01:14:30;17.70;55.00
75819;DHT22;64453;51.944;9.796;2023-05-07T01:16:58;17.70;54.80
75819;DHT22;64453;51.944;9.796;2023-05-07T01:19:25;17.60;55.00
75819;DHT22;64453;51.944;9.796;2023-05-07T01:22:01;17.70;55.30
75819;DHT22;64453;51.944;9.796;2023-05-07T01:24:31;17.70;55.00
75819;DHT22;64453;51.944;9.796;2023-05-07T01:26:59;17.70;54.60
75819;DHT22;64453;51.944;9.796;2023-05-07T01:29:27;17.80;54.80
75819;DHT22;64453;51.944;9.796;2023-05-07T01:31:56;17.60;55.00
75819;DHT22;64453;51.944;9.796;2023-05-07T01:34:25;17.60;55.10
75819;DHT22;64453;51.944;9.796;2023-05-07T01:36:54;17.60;55.20
75819;DHT22;64453;51.944;9.796;2023-05-07T01:39:24;17.60;55.20
75819;DHT22;64453;51.944;9.796;2023-05-07T01:41:55;17.60;55.20
75819;DHT22;64453;51.944;9.796;2023-05-07T01:44:22;17.60;55.00
75819;DHT22;64453;51.944;9.796;2023-05-07T01:46:50;17.60;55.10
75819;DHT22;64453;51.944;9.796;2023-05-07T01:49:17;17.60;55.30
75819;DHT22;64453;51.944;9.796;2023-05-07T01:51:45;17.50;55.30
75819;DHT22;64453;51.944;9.796;2023-05-07T01:54:12;17.60;55.20
75819;DHT22;64453;51.944;9.796;2023-05-07T01:56:40;17.40;55.20
75819;DHT22;64453;51.944;9.796;2023-05-07T01:59:08;17.40;55.70
75819;DHT22;64453;51.944;9.796;2023-05-07T02:01:37;17.30;55.70
75819;DHT22;64453;51.944;9.796;2023-05-07T02:04:04;17.30;55.40
75819;DHT22;64453;51.944;9.796;2023-05-07T02:06:31;17.30;55.70
75819;DHT22;64453;51.944;9.796;2023-05-07T02:08:58;17.30;55.50
75819;DHT22;64453;51.944;9.796;2023-05-07T02:11:25;17.40;55.70
75819;DHT22;64453;51.944;9.796;2023-05-07T02:13:53;17.30;55.20
75819;DHT22;64453;51.944;9.796;2023-05-07T02:16:22;17.40;55.40
75819;DHT22;64453;51.944;9.796;2023-05-07T02:18:49;17.50;55.10
75819;DHT22;64453;51.944;9.796;2023-05-07T02:21:16;17.60;55.20
75819;DHT22;64453;51.944;9.796;2023-05-07T02:23:43;17.60;55.20
75819;DHT22;64453;51.944;9.796;2023-05-07T02:26:11;17.60;55.00
75819;DHT22;64453;51.944;9.796;2023-05-07T02:28:38;17.60;55.20
75819;DHT22;64453;51.944;9.796;2023-05-07T02:31:05;17.50;55.30
75819;DHT22;64453;51.944;9.796;2023-05-07T02:33:34;17.50;55.40
75819;DHT22;64453;51.944;9.796;2023-05-07T02:36:06;17.50;55.50
75819;DHT22;64453;51.944;9.796;2023-05-07T02:38:34;17.40;55.50
75819;DHT22;64453;51.944;9.796;2023-05-07T02:41:01;17.40;55.60
75819;DHT22;64453;51.944;9.796;2023-05-07T02:43:29;17.40;55.80
75819;DHT22;64453;51.944;9.796;2023-05-07T02:46:03;17.40;55.80
75819;DHT22;64453;51.944;9.796;2023-05-07T02:48:31;17.40;55.80
75819;DHT22;64453;51.944;9.796;2023-05-07T02:50:59;17.40;55.80
75819;DHT22;64453;51.944;9.796;2023-05-07T02:53:27;17.30;55.70
75819;DHT22;64453;51.944;9.796;2023-05-07T02:55:55;17.30;55.90
75819;DHT22;64453;51.944;9.796;2023-05-07T02:58:23;17.40;55.70
75819;DHT22;64453;51.944;9.796;2023-05-07T03:00:51;17.40;55.70
75819;DHT22;64453;51.944;9.796;2023-05-07T03:03:18;17.10;56.00
75819;DHT22;64453;51.944;9.796;2023-05-07T03:05:45;17.10;56.10
75819;DHT22;64453;51.944;9.796;2023-05-07T03:08:13;17.20;56.20
75819;DHT22;64453;51.944;9.796;2023-05-07T03:10:40;17.00;56.40
75819;DHT22;64453;51.944;9.796;2023-05-07T03:13:07;17.10;56.50
75819;DHT22;64453;51.944;9.796;2023-05-07T03:15:35;17.10;56.40
75819;DHT22;64453;51.944;9.796;2023-05-07T03:18:02;17.00;56.40
75819;DHT22;64453;51.944;9.796;2023-05-07T03:20:29;17.10;56.60
75819;DHT22;64453;51.944;9.796;2023-05-07T03:22:56;16.90;56.30
75819;DHT22;64453;51.944;9.796;2023-05-07T03:25:25;17.10;56.30
75819;DHT22;64453;51.944;9.796;2023-05-07T03:27:52;17.10;56.20
75819;DHT22;64453;51.944;9.796;2023-05-07T03:30:19;17.10;56.00
75819;DHT22;64453;51.944;9.796;2023-05-07T03:32:46;17.00;56.30
75819;DHT22;64453;51.944;9.796;2023-05-07T03:35:13;16.90;56.80
75819;DHT22;64453;51.944;9.796;2023-05-07T03:37:40;17.00;56.40
75819;DHT22;64453;51.944;9.796;2023-05-07T03:40:08;16.90;56.20
75819;DHT22;64453;51.944;9.796;2023-05-07T03:42:39;17.10;56.20
75819;DHT22;64453;51.944;9.796;2023-05-07T03:45:07;17.00;56.30
75819;DHT22;64453;51.944;9.796;2023-05-07T03:47:35;17.20;56.40
75819;DHT22;64453;51.944;9.796;2023-05-07T03:50:02;17.20;56.10
75819;DHT22;64453;51.944;9.796;2023-05-07T03:52:30;17.10;56.00
75819;DHT22;64453;51.944;9.796;2023-05-07T03:54:57;17.20;56.00
75819;DHT22;64453;51.944;9.796;2023-05-07T03:57:24;17.10;56.00
75819;DHT22;64453;51.944;9.796;2023-05-07T03:59:52;17.00;56.10
75819;DHT22;64453;51.944;9.796;2023-05-07T04:02:20;17.00;56.20
75819;DHT22;64453;51.944;9.796;2023-05-07T04:04:48;17.10;56.20
75819;DHT22;64453;51.944;9.796;2023-05-07T04:07:15;17.10;56.40
75819;DHT22;64453;51.944;9.796;2023-05-07T04:09:42;17.00;56.30
75819;DHT22;64453;51.944;9.796;2023-05-07T04:12:10;17.00;56.20
75819;DHT22;64453;51.944;9.796;2023-05-07T04:14:38;17.00;56.40
75819;DHT22;64453;51.944;9.796;2023-05-07T04:17:06;16.90;56.30
75819;DHT22;64453;51.944;9.796;2023-05-07T04:19:35;16.80;56.20
75819;DHT22;64453;51.944;9.796;2023-05-07T04:22:02;16.90;55.90
75819;DHT22;64453;51.944;9.796;2023-05-07T04:24:31;16.90;55.90
75819;DHT22;64453;51.944;9.796;2023-05-07T04:26:58;16.90;55.90
75819;DHT22;64453;51.944;9.796;2023-05-07T04:29:25;17.00;56.00
75819;DHT22;64453;51.944;9.796;2023-05-07T04:31:52;17.00;55.90
75819;DHT22;64453;51.944;9.796;2023-05-07T04:34:23;16.90;56.10
75819;DHT22;64453;51.944;9.796;2023-05-07T04:36:49;17.00;56.10
75819;DHT22;64453;51.944;9.796;2023-05-07T04:39:17;17.00;56.00
75819;DHT22;64453;51.944;9.796;2023-05-07T04:41:44;17.00;56.00
75819;DHT22;64453;51.944;9.796;2023-05-07T04:44:11;16.90;56.10
75819;DHT22;64453;51.944;9.796;2023-05-07T04:46:39;16.90;56.20
75819;DHT22;64453;51.944;9.796;2023-05-07T04:49:06;16.90;56.10
75819;DHT22;64453;51.944;9.796;2023-05-07T04:51:35;16.90;56.10
75819;DHT22;64453;51.944;9.796;2023-05-07T04:54:03;16.90;55.80
75819;DHT22;64453;51.944;9.796;2023-05-07T04:56:30;17.00;55.90
75819;DHT22;64453;51.944;9.796;2023-05-07T04:58:57;17.00;55.70
75819;DHT22;64453;51.944;9.796;2023-05-07T05:01:24;16.90;55.80
75819;DHT22;64453;51.944;9.796;2023-05-07T05:03:52;16.90;55.80
75819;DHT22;64453;51.944;9.796;2023-05-07T05:06:19;16.90;56.20
75819;DHT22;64453;51.944;9.796;2023-05-07T05:08:48;16.70;56.30
75819;DHT22;64453;51.944;9.796;2023-05-07T05:11:15;16.80;56.20
75819;DHT22;64453;51.944;9.796;2023-05-07T05:13:42;16.90;56.30
75819;DHT22;64453;51.944;9.796;2023-05-07T05:16:12;16.70;56.40
75819;DHT22;64453;51.944;9.796;2023-05-07T05:18:39;16.80;56.40
75819;DHT22;64453;51.944;9.796;2023-05-07T05:21:06;16.80;56.40
75819;DHT22;64453;51.944;9.796;2023-05-07T05:23:33;16.80;56.50
75819;DHT22;64453;51.944;9.796;2023-05-07T05:26:02;16.80;56.40
75819;DHT22;64453;51.944;9.796;2023-05-07T05:28:29;16.70;56.60
75819;DHT22;64453;51.944;9.796;2023-05-07T05:30:56;16.80;56.20
75819;DHT22;64453;51.944;9.796;2023-05-07T05:33:23;16.80;56.50
75819;DHT22;64453;51.944;9.796;2023-05-07T05:35:50;16.80;56.40
75819;DHT22;64453;51.944;9.796;2023-05-07T05:38:17;16.90;56.50
75819;DHT22;64453;51.944;9.796;2023-05-07T05:40:46;16.80;56.40
75819;DHT22;64453;51.944;9.796;2023-05-07T05:43:15;16.90;56.60
75819;DHT22;64453;51.944;9.796;2023-05-07T05:45:42;16.90;56.40
75819;DHT22;64453;51.944;9.796;2023-05-07T05:48:09;16.90;56.50
75819;DHT22;64453;51.944;9.796;2023-05-07T05:50:36;16.90;56.50
75819;DHT22;64453;51.944;9.796;2023-05-07T05:53:04;16.80;56.20
75819;DHT22;64453;51.944;9.796;2023-05-07T05:55:31;16.80;56.30
75819;DHT22;64453;51.944;9.796;2023-05-07T05:57:59;16.90;56.60
75819;DHT22;64453;51.944;9.796;2023-05-07T06:00:28;16.90;56.50
75819;DHT22;64453;51.944;9.796;2023-05-07T06:02:57;17.00;56.70
75819;DHT22;64453;51.944;9.796;2023-05-07T06:05:25;17.00;56.90
75819;DHT22;64453;51.944;9.796;2023-05-07T06:07:52;17.00;56.50
75819;DHT22;64453;51.944;9.796;2023-05-07T06:10:19;16.90;56.60
75819;DHT22;64453;51.944;9.796;2023-05-07T06:12:46;16.90;56.60
75819;DHT22;64453;51.944;9.796;2023-05-07T06:15:13;16.90;56.80
75819;DHT22;64453;51.944;9.796;2023-05-07T06:17:41;16.80;56.20
75819;DHT22;64453;51.944;9.796;2023-05-07T06:20:09;16.90;56.50
75819;DHT22;64453;51.944;9.796;2023-05-07T06:22:38;17.00;56.50
75819;DHT22;64453;51.944;9.796;2023-05-07T06:25:06;17.00;56.40
75819;DHT22;64453;51.944;9.796;2023-05-07T06:27:35;16.90;56.70
75819;DHT22;64453;51.944;9.796;2023-05-07T06:30:03;16.90;56.40
75819;DHT22;64453;51.944;9.796;2023-05-07T06:32:31;17.00;56.10
75819;DHT22;64453;51.944;9.796;2023-05-07T06:34:59;17.00;55.70
75819;DHT22;64453;51.944;9.796;2023-05-07T06:37:27;16.90;55.80
75819;DHT22;64453;51.944;9.796;2023-05-07T06:39:54;16.80;56.30
75819;DHT22;64453;51.944;9.796;2023-05-07T06:42:21;16.70;56.10
75819;DHT22;64453;51.944;9.796;2023-05-07T06:44:48;16.80;56.40
75819;DHT22;64453;51.944;9.796;2023-05-07T06:47:16;16.70;56.40
75819;DHT22;64453;51.944;9.796;2023-05-07T06:49:43;16.70;56.50
75819;DHT22;64453;51.944;9.796;2023-05-07T06:52:12;16.80;56.10
75819;DHT22;64453;51.944;9.796;2023-05-07T06:54:39;16.80;56.20
75819;DHT22;64453;51.944;9.796;2023-05-07T06:57:06;16.80;56.20
75819;DHT22;64453;51.944;9.796;2023-05-07T06:59:33;16.70;56.20
75819;DHT22;64453;51.944;9.796;2023-05-07T07:02:01;16.90;56.40
75819;DHT22;64453;51.944;9.796;2023-05-07T07:04:28;16.90;56.30
75819;DHT22;64453;51.944;9.796;2023-05-07T07:06:55;16.60;56.20
75819;DHT22;64453;51.944;9.796;2023-05-07T07:09:24;16.70;56.60
75819;DHT22;64453;51.944;9.796;2023-05-07T07:11:51;16.70;56.20
75819;DHT22;64453;51.944;9.796;2023-05-07T07:14:18;16.80;56.10
75819;DHT22;64453;51.944;9.796;2023-05-07T07:16:45;16.90;55.90
75819;DHT22;64453;51.944;9.796;2023-05-07T07:19:13;16.70;55.90
75819;DHT22;64453;51.944;9.796;2023-05-07T07:21:41;16.80;56.20
75819;DHT22;64453;51.944;9.796;2023-05-07T07:24:08;16.60;56.00
75819;DHT22;64453;51.944;9.796;2023-05-07T07:26:37;16.80;57.00
75819;DHT22;64453;51.944;9.796;2023-05-07T07:29:06;16.90;56.20
75819;DHT22;64453;51.944;9.796;2023-05-07T07:31:33;17.00;56.00
75819;DHT22;64453;51.944;9.796;2023-05-07T07:34:01;16.70;56.40
75819;DHT22;64453;51.944;9.796;2023-05-07T07:36:28;16.80;56.40
75819;DHT22;64453;51.944;9.796;2023-05-07T07:38:56;16.80;55.90
75819;DHT22;64453;51.944;9.796;2023-05-07T07:41:23;16.90;56.20
75819;DHT22;64453;51.944;9.796;2023-05-07T07:43:51;16.70;56.40
75819;DHT22;64453;51.944;9.796;2023-05-07T07:46:18;16.90;56.10
75819;DHT22;64453;51.944;9.796;2023-05-07T07:48:45;16.90;56.30
75819;DHT22;64453;51.944;9.796;2023-05-07T07:51:12;16.80;55.90
75819;DHT22;64453;51.944;9.796;2023-05-07T07:53:40;16.80;56.30
75819;DHT22;64453;51.944;9.796;2023-05-07T07:56:07;16.90;56.00
75819;DHT22;64453;51.944;9.796;2023-05-07T07:58:36;16.80;55.90
75819;DHT22;64453;51.944;9.796;2023-05-07T08:01:04;16.80;56.00
75819;DHT22;64453;51.944;9.796;2023-05-07T08:03:31;17.00;56.20
75819;DHT22;64453;51.944;9.796;2023-05-07T08:05:59;17.00;55.90
75819;DHT22;64453;51.944;9.796;2023-05-07T08:08:26;17.00;55.40
75819;DHT22;64453;51.944;9.796;2023-05-07T08:10:53;17.10;55.70
75819;DHT22;64453;51.944;9.796;2023-05-07T08:13:23;17.10;55.50
75819;DHT22;64453;51.944;9.796;2023-05-07T08:15:50;17.10;55.50
75819;DHT22;64453;51.944;9.796;2023-05-07T08:18:19;17.00;55.60
75819;DHT22;64453;51.944;9.796;2023-05-07T08:20:47;17.10;55.40
75819;DHT22;64453;51.944;9.796;2023-05-07T08:23:14;17.00;55.60
75819;DHT22;64453;51.944;9.796;2023-05-07T08:25:41;17.10;55.60
75819;DHT22;64453;51.944;9.796;2023-05-07T08:28:10;17.10;55.30
75819;DHT22;64453;51.944;9.796;2023-05-07T08:30:37;17.10;55.30
75819;DHT22;64453;51.944;9.796;2023-05-07T08:33:04;17.00;55.20
75819;DHT22;64453;51.944;9.796;2023-05-07T08:35:32;17.10;55.60
75819;DHT22;64453;51.944;9.796;2023-05-07T08:37:59;16.90;55.50
75819;DHT22;64453;51.944;9.796;2023-05-07T08:40:26;16.90;55.10
75819;DHT22;64453;51.944;9.796;2023-05-07T08:42:58;17.10;55.20
75819;DHT22;64453;51.944;9.796;2023-05-07T08:45:25;17.00;55.60
75819;DHT22;64453;51.944;9.796;2023-05-07T08:47:59;17.10;55.60
75819;DHT22;64453;51.944;9.796;2023-05-07T08:50:27;17.00;55.60
75819;DHT22;64453;51.944;9.796;2023-05-07T08:52:56;17.20;55.60
75819;DHT22;64453;51.944;9.796;2023-05-07T08:55:24;17.20;55.40
75819;DHT22;64453;51.944;9.796;2023-05-07T08:57:51;17.30;55.60
75819;DHT22;64453;51.944;9.796;2023-05-07T09:00:19;17.20;55.40
75819;DHT22;64453;51.944;9.796;2023-05-07T09:02:46;17.20;55.60
75819;DHT22;64453;51.944;9.796;2023-05-07T09:05:16;17.20;55.70
75819;DHT22;64453;51.944;9.796;2023-05-07T09:07:44;17.20;55.50
75819;DHT22;64453;51.944;9.796;2023-05-07T09:10:13;17.30;55.10
75819;DHT22;64453;51.944;9.796;2023-05-07T09:12:40;17.30;55.10
75819;DHT22;64453;51.944;9.796;2023-05-07T09:15:08;17.40;55.40
75819;DHT22;64453;51.944;9.796;2023-05-07T09:17:38;17.50;55.40
75819;DHT22;64453;51.944;9.796;2023-05-07T09:20:07;17.40;55.00
75819;DHT22;64453;51.944;9.796;2023-05-07T09:22:37;17.40;55.40
75819;DHT22;64453;51.944;9.796;2023-05-07T09:25:06;17.40;55.10
75819;DHT22;64453;51.944;9.796;2023-05-07T09:27:36;17.50;55.50
75819;DHT22;64453;51.944;9.796;2023-05-07T09:30:06;17.50;55.30
75819;DHT22;64453;51.944;9.796;2023-05-07T09:32:35;17.40;55.20
75819;DHT22;64453;51.944;9.796;2023-05-07T09:35:04;17.50;55.90
75819;DHT22;64453;51.944;9.796;2023-05-07T09:37:31;17.60;55.80
75819;DHT22;64453;51.944;9.796;2023-05-07T09:39:59;17.60;55.80
75819;DHT22;64453;51.944;9.796;2023-05-07T09:42:27;17.60;55.80
75819;DHT22;64453;51.944;9.796;2023-05-07T09:45:00;17.70;56.00
75819;DHT22;64453;51.944;9.796;2023-05-07T09:47:32;17.70;55.80
75819;DHT22;64453;51.944;9.796;2023-05-07T09:49:59;17.60;55.80
75819;DHT22;64453;51.944;9.796;2023-05-07T09:52:29;17.70;56.00
75819;DHT22;64453;51.944;9.796;2023-05-07T09:54:59;17.80;55.80
75819;DHT22;64453;51.944;9.796;2023-05-07T09:57:27;17.70;55.70
75819;DHT22;64453;51.944;9.796;2023-05-07T09:59:58;17.70;56.10
75819;DHT22;64453;51.944;9.796;2023-05-07T10:02:27;17.80;55.80
75819;DHT22;64453;51.944;9.796;2023-05-07T10:04:57;17.60;55.70
75819;DHT22;64453;51.944;9.796;2023-05-07T10:07:25;17.70;56.10
75819;DHT22;64453;51.944;9.796;2023-05-07T10:09:53;17.70;56.00
75819;DHT22;64453;51.944;9.796;2023-05-07T10:12:21;17.70;55.50
75819;DHT22;64453;51.944;9.796;2023-05-07T10:14:50;17.70;55.80
75819;DHT22;64453;51.944;9.796;2023-05-07T10:17:20;17.70;56.00
75819;DHT22;64453;51.944;9.796;2023-05-07T10:19:48;17.80;56.10
75819;DHT22;64453;51.944;9.796;2023-05-07T10:22:16;17.90;56.30
75819;DHT22;64453;51.944;9.796;2023-05-07T10:24:44;17.90;55.90
75819;DHT22;64453;51.944;9.796;2023-05-07T10:27:16;18.00;55.90
75819;DHT22;64453;51.944;9.796;2023-05-07T10:29:50;18.10;55.90
75819;DHT22;64453;51.944;9.796;2023-05-07T10:32:33;18.20;55.60
75819;DHT22;64453;51.944;9.796;2023-05-07T10:35:06;18.20;55.90
75819;DHT22;64453;51.944;9.796;2023-05-07T10:37:37;18.10;55.60
75819;DHT22;64453;51.944;9.796;2023-05-07T10:40:09;18.20;55.90
75819;DHT22;64453;51.944;9.796;2023-05-07T10:42:37;18.30;55.30
75819;DHT22;64453;51.944;9.796;2023-05-07T10:45:13;18.30;55.90
75819;DHT22;64453;51.944;9.796;2023-05-07T10:48:17;18.40;55.80
75819;DHT22;64453;51.944;9.796;2023-05-07T10:50:45;18.60;55.30
75819;DHT22;64453;51.944;9.796;2023-05-07T10:53:23;18.60;55.40
75819;DHT22;64453;51.944;9.796;2023-05-07T10:56:25;18.60;54.80
75819;DHT22;64453;51.944;9.796;2023-05-07T10:58:53;18.80;55.30
75819;DHT22;64453;51.944;9.796;2023-05-07T11:01:49;18.70;55.10
75819;DHT22;64453;51.944;9.796;2023-05-07T11:04:18;18.70;55.00
75819;DHT22;64453;51.944;9.796;2023-05-07T11:07:26;18.80;55.50
75819;DHT22;64453;51.944;9.796;2023-05-07T11:09:55;18.90;55.30
75819;DHT22;64453;51.944;9.796;2023-05-07T11:12:46;18.80;54.80
75819;DHT22;64453;51.944;9.796;2023-05-07T11:15:37;19.00;54.70
75819;DHT22;64453;51.944;9.796;2023-05-07T11:18:12;19.10;54.30
75819;DHT22;64453;51.944;9.796;2023-05-07T11:20:56;19.00;55.20
75819;DHT22;64453;51.944;9.796;2023-05-07T11:23:55;19.10;55.50
75819;DHT22;64453;51.944;9.796;2023-05-07T11:26:28;19.10;55.10
75819;DHT22;64453;51.944;9.796;2023-05-07T11:28:57;19.20;55.30
75819;DHT22;64453;51.944;9.796;2023-05-07T11:31:27;19.30;55.50
75819;DHT22;64453;51.944;9.796;2023-05-07T11:33:55;19.40;54.80
75819;DHT22;64453;51.944;9.796;2023-05-07T11:36:24;19.30;54.70
75819;DHT22;64453;51.944;9.796;2023-05-07T11:38:52;19.40;54.60
75819;DHT22;64453;51.944;9.796;2023-05-07T11:41:19;19.40;54.30
75819;DHT22;64453;51.944;9.796;2023-05-07T11:43:54;19.60;53.50
75819;DHT22;64453;51.944;9.796;2023-05-07T11:46:26;19.50;52.80
75819;DHT22;64453;51.944;9.796;2023-05-07T11:48:54;19.50;53.10
75819;DHT22;64453;51.944;9.796;2023-05-07T11:51:25;19.40;53.20
75819;DHT22;64453;51.944;9.796;2023-05-07T11:53:53;19.50;53.30
75819;DHT22;64453;51.944;9.796;2023-05-07T11:56:20;19.50;53.50
75819;DHT22;64453;51.944;9.796;2023-05-07T11:58:48;19.50;52.90
75819;DHT22;64453;51.944;9.796;2023-05-07T12:01:17;19.50;53.60
75819;DHT22;64453;51.944;9.796;2023-05-07T12:03:45;19.50;53.60
75819;DHT22;64453;51.944;9.796;2023-05-07T12:06:14;19.60;53.20
75819;DHT22;64453;51.944;9.796;2023-05-07T12:08:44;19.50;54.00
75819;DHT22;64453;51.944;9.796;2023-05-07T12:11:14;19.50;54.90
75819;DHT22;64453;51.944;9.796;2023-05-07T12:13:43;19.60;54.40
75819;DHT22;64453;51.944;9.796;2023-05-07T12:16:11;19.70;53.60
75819;DHT22;64453;51.944;9.796;2023-05-07T12:18:39;19.60;53.40
75819;DHT22;64453;51.944;9.796;2023-05-07T12:21:08;19.70;52.40
75819;DHT22;64453;51.944;9.796;2023-05-07T12:23:37;19.70;53.50
75819;DHT22;64453;51.944;9.796;2023-05-07T12:26:06;19.70;53.60
75819;DHT22;64453;51.944;9.796;2023-05-07T12:28:37;19.70;53.20
75819;DHT22;64453;51.944;9.796;2023-05-07T12:31:06;19.90;52.70
75819;DHT22;64453;51.944;9.796;2023-05-07T12:33:34;20.00;52.80
75819;DHT22;64453;51.944;9.796;2023-05-07T12:36:06;20.00;52.50
75819;DHT22;64453;51.944;9.796;2023-05-07T12:38:38;20.00;53.00
75819;DHT22;64453;51.944;9.796;2023-05-07T12:41:08;20.10;52.80
75819;DHT22;64453;51.944;9.796;2023-05-07T12:43:37;20.10;52.10
75819;DHT22;64453;51.944;9.796;2023-05-07T12:46:06;20.20;51.70
75819;DHT22;64453;51.944;9.796;2023-05-07T12:48:36;20.20;51.80
75819;DHT22;64453;51.944;9.796;2023-05-07T12:51:05;20.20;51.90
75819;DHT22;64453;51.944;9.796;2023-05-07T12:53:40;20.20;52.00
75819;DHT22;64453;51.944;9.796;2023-05-07T12:56:09;20.30;53.10
75819;DHT22;64453;51.944;9.796;2023-05-07T12:58:37;20.20;52.10
75819;DHT22;64453;51.944;9.796;2023-05-07T13:01:05;20.20;52.60
75819;DHT22;64453;51.944;9.796;2023-05-07T13:03:36;20.30;51.90
75819;DHT22;64453;51.944;9.796;2023-05-07T13:06:06;20.30;52.40
75819;DHT22;64453;51.944;9.796;2023-05-07T13:08:37;20.40;52.50
75819;DHT22;64453;51.944;9.796;2023-05-07T13:11:09;20.50;52.10
75819;DHT22;64453;51.944;9.796;2023-05-07T13:13:38;20.60;52.00
75819;DHT22;64453;51.944;9.796;2023-05-07T13:16:09;20.50;52.10
75819;DHT22;64453;51.944;9.796;2023-05-07T13:18:39;20.70;51.70
75819;DHT22;64453;51.944;9.796;2023-05-07T13:21:06;20.70;51.60
75819;DHT22;64453;51.944;9.796;2023-05-07T13:23:34;20.60;51.50
75819;DHT22;64453;51.944;9.796;2023-05-07T13:26:03;20.70;51.40
75819;DHT22;64453;51.944;9.796;2023-05-07T13:28:32;20.70;51.20
75819;DHT22;64453;51.944;9.796;2023-05-07T13:30:59;20.70;51.50
75819;DHT22;64453;51.944;9.796;2023-05-07T13:33:27;20.60;51.50
75819;DHT22;64453;51.944;9.796;2023-05-07T13:35:54;20.70;51.60
75819;DHT22;64453;51.944;9.796;2023-05-07T13:38:22;20.50;51.10
75819;DHT22;64453;51.944;9.796;2023-05-07T13:40:50;20.60;50.90
75819;DHT22;64453;51.944;9.796;2023-05-07T13:43:17;20.70;51.00
75819;DHT22;64453;51.944;9.796;2023-05-07T13:45:47;20.70;50.80
75819;DHT22;64453;51.944;9.796;2023-05-07T13:48:14;20.80;51.30
75819;DHT22;64453;51.944;9.796;2023-05-07T13:50:41;20.70;51.90
75819;DHT22;64453;51.944;9.796;2023-05-07T13:53:08;20.80;52.00
75819;DHT22;64453;51.944;9.796;2023-05-07T13:55:36;21.00;51.40
75819;DHT22;64453;51.944;9.796;2023-05-07T13:58:03;21.00;50.40
75819;DHT22;64453;51.944;9.796;2023-05-07T14:00:31;21.00;50.60
75819;DHT22;64453;51.944;9.796;2023-05-07T14:02:59;21.10;50.70
75819;DHT22;64453;51.944;9.796;2023-05-07T14:05:27;21.10;50.60
75819;DHT22;64453;51.944;9.796;2023-05-07T14:07:54;21.30;50.60
75819;DHT22;64453;51.944;9.796;2023-05-07T14:10:22;21.40;50.50
75819;DHT22;64453;51.944;9.796;2023-05-07T14:12:49;21.50;50.50
75819;DHT22;64453;51.944;9.796;2023-05-07T14:15:17;21.60;50.10
75819;DHT22;64453;51.944;9.796;2023-05-07T14:17:45;21.60;50.20
75819;DHT22;64453;51.944;9.796;2023-05-07T14:20:13;21.50;49.80
75819;DHT22;64453;51.944;9.796;2023-05-07T14:22:41;21.50;50.20
75819;DHT22;64453;51.944;9.796;2023-05-07T14:25:09;21.50;49.80
75819;DHT22;64453;51.944;9.796;2023-05-07T14:27:37;21.60;49.50
75819;DHT22;64453;51.944;9.796;2023-05-07T14:30:05;21.60;49.80
75819;DHT22;64453;51.944;9.796;2023-05-07T14:32:33;21.80;49.60
75819;DHT22;64453;51.944;9.796;2023-05-07T14:35:00;21.80;49.50
75819;DHT22;64453;51.944;9.796;2023-05-07T14:37:29;21.70;49.00
75819;DHT22;64453;51.944;9.796;2023-05-07T14:39:56;21.90;48.90
75819;DHT22;64453;51.944;9.796;2023-05-07T14:42:23;22.00;48.90
75819;DHT22;64453;51.944;9.796;2023-05-07T14:44:50;22.00;49.60
75819;DHT22;64453;51.944;9.796;2023-05-07T14:47:19;22.10;48.90
75819;DHT22;64453;51.944;9.796;2023-05-07T14:49:47;22.30;48.20
75819;DHT22;64453;51.944;9.796;2023-05-07T14:52:16;22.40;48.30
75819;DHT22;64453;51.944;9.796;2023-05-07T14:54:45;22.20;48.20
75819;DHT22;64453;51.944;9.796;2023-05-07T14:57:13;22.30;48.20
75819;DHT22;64453;51.944;9.796;2023-05-07T14:59:41;22.20;47.20
75819;DHT22;64453;51.944;9.796;2023-05-07T15:02:09;22.40;47.70
75819;DHT22;64453;51.944;9.796;2023-05-07T15:04:39;22.40;47.00
75819;DHT22;64453;51.944;9.796;2023-05-07T15:07:11;22.40;47.30
75819;DHT22;64453;51.944;9.796;2023-05-07T15:09:40;22.40;47.10
75819;DHT22;64453;51.944;9.796;2023-05-07T15:12:09;22.30;47.40
75819;DHT22;64453;51.944;9.796;2023-05-07T15:14:39;22.50;48.00
75819;DHT22;64453;51.944;9.796;2023-05-07T15:17:07;22.50;47.30
75819;DHT22;64453;51.944;9.796;2023-05-07T15:19:34;22.60;46.50
75819;DHT22;64453;51.944;9.796;2023-05-07T15:22:02;22.70;46.70
75819;DHT22;64453;51.944;9.796;2023-05-07T15:24:29;23.30;46.60
75819;DHT22;64453;51.944;9.796;2023-05-07T15:26:56;23.70;45.00
75819;DHT22;64453;51.944;9.796;2023-05-07T15:29:25;24.00;44.80
75819;DHT22;64453;51.944;9.796;2023-05-07T15:31:53;24.10;44.70
75819;DHT22;64453;51.944;9.796;2023-05-07T15:34:21;24.30;43.70
75819;DHT22;64453;51.944;9.796;2023-05-07T15:36:49;24.40;44.00
75819;DHT22;64453;51.944;9.796;2023-05-07T15:39:18;24.50;43.20